Time,TemperatureF,DewpointF,PressureIn,WindDirection,WindDirectionDegrees,WindSpeedMPH,WindSpeedGustMPH,Humidity,HourlyPrecipIn,Conditions,Clouds,dailyrainin,SoftwareType,DateUTC
2013-02-03 00:00:00,24.1,2.2,30.01,NW,323,1.0,6.0,38,0.00,,---,0.00,VWS V14.01,2013-02-03 05:00:00,
2013-02-03 00:02:00,24.1,2.2,30.01,NW,323,0.0,3.0,38,0.00,,---,0.00,VWS V14.01,2013-02-03 05:02:00,
2013-02-03 00:07:00,24.1,2.2,30.01,WNW,300,0.0,5.0,38,0.00,,---,0.00,VWS V14.01,2013-02-03 05:07:00,
2013-02-03 00:12:00,24.1,2.2,30.01,WNW,300,0.0,5.0,38,0.00,,---,0.00,VWS V14.01,2013-02-03 05:12:00,
2013-02-03 00:17:00,24.1,2.2,30.00,WNW,300,1.0,5.0,38,0.00,,---,0.00,VWS V14.01,2013-02-03 05:17:00,
2013-02-03 00:22:00,24.1,2.2,30.00,WNW,300,0.0,5.0,38,0.00,,---,0.00,VWS V14.01,2013-02-03 05:22:00,
2013-02-03 00:27:00,24.1,2.2,30.00,WNW,300,2.0,5.0,38,0.00,,---,0.00,VWS V14.01,2013-02-03 05:27:00,
2013-02-03 00:30:00,24.4,2.5,30.02,NW,317,3.0,9.0,38,0.00,,---,0.00,VWS V14.01,2013-02-03 05:30:00,
2013-02-03 00:32:00,24.1,2.2,29.99,WNW,300,0.0,2.0,38,0.00,,---,0.00,VWS V14.01,2013-02-03 05:32:00,
2013-02-03 00:37:00,24.1,2.2,29.99,WNW,303,0.0,5.0,38,0.00,,---,0.00,VWS V14.01,2013-02-03 05:37:00,
2013-02-03 00:42:00,23.9,2.0,29.99,NW,307,2.0,5.0,38,0.00,,---,0.00,VWS V14.01,2013-02-03 05:42:00,
2013-02-03 00:47:00,23.9,2.0,29.98,NW,311,1.0,5.0,38,0.00,,---,0.00,VWS V14.01,2013-02-03 05:47:00,
2013-02-03 00:52:00,23.9,2.0,29.98,NW,311,1.0,5.0,38,0.00,,---,0.00,VWS V14.01,2013-02-03 05:52:00,
2013-02-03 00:57:00,23.9,2.0,29.98,NW,310,2.0,5.0,38,0.00,,---,0.00,VWS V14.01,2013-02-03 05:57:00,
2013-02-03 01:00:00,24.1,2.2,30.01,NW,323,0.0,6.0,38,0.00,,---,0.00,VWS V14.01,2013-02-03 06:00:00,
2013-02-03 01:02:00,23.9,2.0,29.98,NW,311,1.0,1.0,38,0.00,,---,0.00,VWS V14.01,2013-02-03 06:02:00,
2013-02-03 01:07:00,23.9,2.0,29.98,NW,311,0.0,3.0,38,0.00,,---,0.00,VWS V14.01,2013-02-03 06:07:00,
2013-02-03 01:12:00,23.8,1.9,29.98,NW,311,0.0,3.0,38,0.00,,---,0.00,VWS V14.01,2013-02-03 06:12:00,
2013-02-03 01:17:00,23.8,1.9,29.97,NW,311,0.0,3.0,38,0.00,,---,0.00,VWS V14.01,2013-02-03 06:17:00,
2013-02-03 01:22:00,23.8,1.9,29.97,NW,311,0.0,3.0,38,0.00,,---,0.00,VWS V14.01,2013-02-03 06:22:00,
2013-02-03 01:27:00,23.8,1.9,29.97,NW,311,2.0,3.0,38,0.00,,---,0.00,VWS V14.01,2013-02-03 06:27:00,
2013-02-03 01:30:00,24.1,2.2,29.99,WNW,300,0.0,5.0,38,0.00,,---,0.00,VWS V14.01,2013-02-03 06:30:00,
2013-02-03 01:32:00,23.6,1.7,29.97,NW,311,0.0,2.0,38,0.00,,---,0.00,VWS V14.01,2013-02-03 06:32:00,
2013-02-03 01:37:00,23.6,1.7,29.97,NW,311,0.0,3.0,38,0.00,,---,0.00,VWS V14.01,2013-02-03 06:37:00,
2013-02-03 01:42:00,23.6,1.7,29.97,NW,311,1.0,3.0,38,0.00,,---,0.00,VWS V14.01,2013-02-03 06:42:00,
2013-02-03 01:47:00,23.6,1.7,29.97,NW,311,0.0,3.0,38,0.00,,---,0.00,VWS V14.01,2013-02-03 06:47:00,
2013-02-03 01:52:00,23.5,1.6,29.97,NW,310,0.0,4.0,38,0.00,,---,0.00,VWS V14.01,2013-02-03 06:52:00,
2013-02-03 01:57:00,23.5,1.6,29.97,NW,311,3.0,4.0,38,0.00,,---,0.00,VWS V14.01,2013-02-03 06:57:00,
2013-02-03 02:00:00,23.9,2.0,29.98,NW,311,1.0,5.0,38,0.00,,---,0.00,VWS V14.01,2013-02-03 07:00:00,
2013-02-03 02:02:00,23.5,1.6,29.96,NW,311,0.0,2.0,38,0.00,,---,0.00,VWS V14.01,2013-02-03 07:02:00,
2013-02-03 02:07:00,23.5,1.6,29.96,NW,311,0.0,2.0,38,0.00,,---,0.00,VWS V14.01,2013-02-03 07:07:00,
2013-02-03 02:12:00,23.5,1.6,29.96,NW,310,0.0,2.0,38,0.00,,---,0.00,VWS V14.01,2013-02-03 07:12:00,
2013-02-03 02:17:00,23.3,1.5,29.96,NW,311,0.0,2.0,38,0.00,,---,0.00,VWS V14.01,2013-02-03 07:17:00,
2013-02-03 02:22:00,23.2,1.4,29.96,NW,311,0.0,2.0,38,0.00,,---,0.00,VWS V14.01,2013-02-03 07:22:00,
2013-02-03 02:27:00,23.2,1.4,29.96,NW,311,0.0,2.0,38,0.00,,---,0.00,VWS V14.01,2013-02-03 07:27:00,
2013-02-03 02:30:00,23.6,1.7,29.97,NW,310,0.0,4.0,38,0.00,,---,0.00,VWS V14.01,2013-02-03 07:30:00,
2013-02-03 02:32:00,23.0,1.2,29.95,NW,311,0.0,0.0,38,0.00,,---,0.00,VWS V14.01,2013-02-03 07:32:00,
2013-02-03 02:37:00,22.9,1.1,29.95,NW,310,0.0,0.0,38,0.00,,---,0.00,VWS V14.01,2013-02-03 07:37:00,
2013-02-03 02:42:00,22.9,1.1,29.95,NW,311,0.0,0.0,38,0.00,,---,0.00,VWS V14.01,2013-02-03 07:42:00,
2013-02-03 02:47:00,22.7,0.9,29.95,NW,311,0.0,0.0,38,0.00,,---,0.00,VWS V14.01,2013-02-03 07:47:00,
2013-02-03 02:52:00,22.9,1.1,29.95,NW,310,0.0,0.0,38,0.00,,---,0.00,VWS V14.01,2013-02-03 07:52:00,
2013-02-03 02:57:00,22.7,0.9,29.95,NW,311,0.0,0.0,38,0.00,,---,0.00,VWS V14.01,2013-02-03 07:57:00,
2013-02-03 03:00:00,23.5,1.6,29.96,NW,311,1.0,4.0,38,0.00,,---,0.00,VWS V14.01,2013-02-03 08:00:00,
2013-02-03 03:02:00,22.5,0.7,29.94,NW,311,0.0,0.0,38,0.00,,---,0.00,VWS V14.01,2013-02-03 08:02:00,
2013-02-03 03:07:00,22.5,0.7,29.94,NW,311,0.0,0.0,38,0.00,,---,0.00,VWS V14.01,2013-02-03 08:07:00,
2013-02-03 03:12:00,22.4,0.6,29.94,NW,310,0.0,0.0,38,0.00,,---,0.00,VWS V14.01,2013-02-03 08:12:00,
2013-02-03 03:17:00,22.4,0.6,29.94,NW,310,0.0,0.0,38,0.00,,---,0.00,VWS V14.01,2013-02-03 08:17:00,
2013-02-03 03:22:00,22.4,0.6,29.94,NW,311,0.0,0.0,38,0.00,,---,0.00,VWS V14.01,2013-02-03 08:22:00,
2013-02-03 03:27:00,22.4,0.6,29.94,NW,311,0.0,0.0,38,0.00,,---,0.00,VWS V14.01,2013-02-03 08:27:00,
2013-02-03 03:30:00,23.0,1.2,29.95,NW,310,0.0,2.0,38,0.00,,---,0.00,VWS V14.01,2013-02-03 08:30:00,
2013-02-03 03:32:00,22.2,0.5,29.93,NW,311,0.0,0.0,38,0.00,,---,0.00,VWS V14.01,2013-02-03 08:32:00,
2013-02-03 03:37:00,22.1,0.4,29.93,NW,311,0.0,0.0,38,0.00,,---,0.00,VWS V14.01,2013-02-03 08:37:00,
2013-02-03 03:42:00,22.1,0.4,29.93,NW,311,0.0,0.0,38,0.00,,---,0.00,VWS V14.01,2013-02-03 08:42:00,
2013-02-03 03:47:00,21.9,0.2,29.93,NW,311,0.0,0.0,38,0.00,,---,0.00,VWS V14.01,2013-02-03 08:47:00,
2013-02-03 03:52:00,21.6,-0.1,29.93,NW,311,0.0,0.0,38,0.00,,---,0.00,VWS V14.01,2013-02-03 08:52:00,
2013-02-03 03:57:00,21.6,-0.1,29.93,NW,311,0.0,0.0,38,0.00,,---,0.00,VWS V14.01,2013-02-03 08:57:00,
2013-02-03 04:00:00,22.5,0.7,29.94,NW,311,0.0,0.0,38,0.00,,---,0.00,VWS V14.01,2013-02-03 09:00:00,
2013-02-03 04:02:00,21.4,0.3,29.92,NW,310,0.0,0.0,39,0.00,,---,0.00,VWS V14.01,2013-02-03 09:02:00,
2013-02-03 04:07:00,21.4,0.3,29.92,NW,310,0.0,0.0,39,0.00,,---,0.00,VWS V14.01,2013-02-03 09:07:00,
2013-02-03 04:12:00,21.3,0.2,29.92,NW,310,0.0,0.0,39,0.00,,---,0.00,VWS V14.01,2013-02-03 09:12:00,
2013-02-03 04:17:00,21.3,0.2,29.92,NW,311,0.0,0.0,39,0.00,,---,0.00,VWS V14.01,2013-02-03 09:17:00,
2013-02-03 04:22:00,21.4,0.3,29.92,NW,311,0.0,0.0,39,0.00,,---,0.00,VWS V14.01,2013-02-03 09:22:00,
2013-02-03 04:27:00,21.4,0.3,29.92,NW,311,0.0,0.0,39,0.00,,---,0.00,VWS V14.01,2013-02-03 09:27:00,
2013-02-03 04:30:00,22.2,0.5,29.93,NW,311,0.0,0.0,38,0.00,,---,0.00,VWS V14.01,2013-02-03 09:30:00,
2013-02-03 04:32:00,21.3,0.2,29.92,NW,311,0.0,0.0,39,0.00,,---,0.00,VWS V14.01,2013-02-03 09:32:00,
2013-02-03 04:37:00,21.1,0.0,29.92,NW,310,0.0,0.0,39,0.00,,---,0.00,VWS V14.01,2013-02-03 09:37:00,
2013-02-03 04:42:00,21.0,-0.1,29.92,NW,311,0.0,0.0,39,0.00,,---,0.00,VWS V14.01,2013-02-03 09:42:00,
2013-02-03 04:47:00,20.8,-0.2,29.92,NW,311,0.0,0.0,39,0.00,,---,0.00,VWS V14.01,2013-02-03 09:47:00,
2013-02-03 04:52:00,20.6,-0.4,29.92,NW,311,0.0,0.0,39,0.00,,---,0.00,VWS V14.01,2013-02-03 09:52:00,
2013-02-03 04:57:00,20.5,-0.5,29.92,NW,311,0.0,0.0,39,0.00,,---,0.00,VWS V14.01,2013-02-03 09:57:00,
2013-02-03 05:00:00,21.4,0.3,29.92,NW,311,0.0,0.0,39,0.00,,---,0.00,VWS V14.01,2013-02-03 10:00:00,
2013-02-03 05:02:00,20.3,-0.7,29.91,NW,311,0.0,0.0,39,0.00,,---,0.00,VWS V14.01,2013-02-03 10:02:00,
2013-02-03 05:07:00,20.2,-0.8,29.91,NW,311,0.0,0.0,39,0.00,,---,0.00,VWS V14.01,2013-02-03 10:07:00,
2013-02-03 05:12:00,20.0,-1.0,29.91,NW,311,0.0,0.0,39,0.00,,---,0.00,VWS V14.01,2013-02-03 10:12:00,
2013-02-03 05:17:00,19.9,-1.0,29.90,NW,310,0.0,0.0,39,0.00,,---,0.00,VWS V14.01,2013-02-03 10:17:00,
2013-02-03 05:22:00,19.9,-1.0,29.90,NW,311,0.0,0.0,39,0.00,,---,0.00,VWS V14.01,2013-02-03 10:22:00,
2013-02-03 05:27:00,19.7,-1.2,29.90,NW,310,0.0,0.0,39,0.00,,---,0.00,VWS V14.01,2013-02-03 10:27:00,
2013-02-03 05:30:00,21.3,0.2,29.92,NW,310,0.0,0.0,39,0.00,,---,0.00,VWS V14.01,2013-02-03 10:30:00,
2013-02-03 05:32:00,19.5,-1.4,29.90,NW,310,0.0,0.0,39,0.00,,---,0.00,VWS V14.01,2013-02-03 10:32:00,
2013-02-03 05:37:00,19.4,-1.5,29.90,NW,311,0.0,0.0,39,0.00,,---,0.00,VWS V14.01,2013-02-03 10:37:00,
2013-02-03 05:42:00,19.4,-1.5,29.90,NW,311,0.0,0.0,39,0.00,,---,0.00,VWS V14.01,2013-02-03 10:42:00,
2013-02-03 05:47:00,19.2,-1.7,29.89,NW,310,0.0,0.0,39,0.00,,---,0.00,VWS V14.01,2013-02-03 10:47:00,
2013-02-03 05:52:00,19.2,-1.7,29.89,NW,310,0.0,0.0,39,0.00,,---,0.00,VWS V14.01,2013-02-03 10:52:00,
2013-02-03 05:57:00,19.1,-1.8,29.89,NW,310,0.0,0.0,39,0.00,,---,0.00,VWS V14.01,2013-02-03 10:57:00,
2013-02-03 06:00:00,20.3,-0.7,29.91,NW,310,0.0,0.0,39,0.00,,---,0.00,VWS V14.01,2013-02-03 11:00:00,
2013-02-03 06:02:00,18.9,-2.0,29.89,NW,310,0.0,1.0,39,0.00,,---,0.00,VWS V14.01,2013-02-03 11:02:00,
2013-02-03 06:07:00,18.9,-2.0,29.89,NW,311,0.0,1.0,39,0.00,,---,0.00,VWS V14.01,2013-02-03 11:07:00,
2013-02-03 06:12:00,18.9,-2.0,29.89,NW,311,2.0,2.0,39,0.00,,---,0.00,VWS V14.01,2013-02-03 11:12:00,
2013-02-03 06:17:00,18.9,-2.0,29.89,NW,311,1.0,3.0,39,0.00,,---,0.00,VWS V14.01,2013-02-03 11:17:00,
2013-02-03 06:22:00,18.8,-2.0,29.89,NW,310,0.0,3.0,39,0.00,,---,0.00,VWS V14.01,2013-02-03 11:22:00,
2013-02-03 06:27:00,18.8,-2.0,29.89,NW,311,0.0,3.0,39,0.00,,---,0.00,VWS V14.01,2013-02-03 11:27:00,
2013-02-03 06:30:00,19.7,-1.2,29.90,NW,311,0.0,0.0,39,0.00,,---,0.00,VWS V14.01,2013-02-03 11:30:00,
2013-02-03 06:32:00,18.6,-2.2,29.89,NW,311,0.0,1.0,39,0.00,,---,0.00,VWS V14.01,2013-02-03 11:32:00,
2013-02-03 06:37:00,18.6,-2.2,29.89,NW,310,0.0,1.0,39,0.00,,---,0.00,VWS V14.01,2013-02-03 11:37:00,
2013-02-03 06:42:00,18.6,-2.2,29.89,NW,310,0.0,2.0,39,0.00,,---,0.00,VWS V14.01,2013-02-03 11:42:00,
2013-02-03 06:47:00,18.4,-2.4,29.90,NW,310,0.0,2.0,39,0.00,,---,0.00,VWS V14.01,2013-02-03 11:47:00,
2013-02-03 06:52:00,18.3,-2.5,29.90,NW,311,0.0,2.0,39,0.00,,---,0.00,VWS V14.01,2013-02-03 11:52:00,
2013-02-03 06:57:00,18.3,-2.5,29.90,NW,311,0.0,2.0,39,0.00,,---,0.00,VWS V14.01,2013-02-03 11:57:00,
2013-02-03 07:00:00,18.9,-2.0,29.89,NW,311,1.0,1.0,39,0.00,,---,0.00,VWS V14.01,2013-02-03 12:00:00,
2013-02-03 07:02:00,18.4,-2.4,29.91,NW,311,0.0,0.0,39,0.00,,---,0.00,VWS V14.01,2013-02-03 12:02:00,
2013-02-03 07:07:00,18.4,-2.4,29.91,NW,311,0.0,0.0,39,0.00,,---,0.00,VWS V14.01,2013-02-03 12:07:00,
2013-02-03 07:12:00,18.3,-2.5,29.91,NW,310,0.0,0.0,39,0.00,,---,0.00,VWS V14.01,2013-02-03 12:12:00,
2013-02-03 07:17:00,18.3,-2.5,29.92,NW,311,0.0,0.0,39,0.00,,---,0.00,VWS V14.01,2013-02-03 12:17:00,
2013-02-03 07:22:00,18.3,-2.5,29.92,NW,311,0.0,0.0,39,0.00,,---,0.00,VWS V14.01,2013-02-03 12:22:00,
2013-02-03 07:27:00,18.4,-2.4,29.92,NW,310,0.0,0.0,39,0.00,,---,0.00,VWS V14.01,2013-02-03 12:27:00,
2013-02-03 07:30:00,18.6,-2.2,29.89,NW,311,0.0,3.0,39,0.00,,---,0.00,VWS V14.01,2013-02-03 12:30:00,
2013-02-03 07:32:00,18.6,-2.2,29.92,NW,311,0.0,0.0,39,0.00,,---,0.00,VWS V14.01,2013-02-03 12:32:00,
2013-02-03 07:37:00,18.6,-2.2,29.92,NW,311,0.0,0.0,39,0.00,,---,0.00,VWS V14.01,2013-02-03 12:37:00,
2013-02-03 07:42:00,18.8,-2.0,29.92,NW,310,0.0,0.0,39,0.00,,---,0.00,VWS V14.01,2013-02-03 12:42:00,
2013-02-03 07:47:00,18.8,-2.0,29.92,NW,311,0.0,0.0,39,0.00,,---,0.00,VWS V14.01,2013-02-03 12:47:00,
2013-02-03 07:52:00,18.6,-2.2,29.92,NW,311,0.0,0.0,39,0.00,,---,0.00,VWS V14.01,2013-02-03 12:52:00,
2013-02-03 07:57:00,18.6,-2.2,29.92,NW,311,1.0,1.0,39,0.00,,---,0.00,VWS V14.01,2013-02-03 12:57:00,
2013-02-03 08:00:00,18.4,-2.4,29.91,NW,311,0.0,2.0,39,0.00,,---,0.00,VWS V14.01,2013-02-03 13:00:00,
2013-02-03 08:02:00,18.6,-2.2,29.92,NW,310,0.0,0.0,39,0.00,,---,0.00,VWS V14.01,2013-02-03 13:02:00,
2013-02-03 08:07:00,18.6,-2.2,29.92,NW,311,0.0,0.0,39,0.00,,---,0.00,VWS V14.01,2013-02-03 13:07:00,
2013-02-03 08:12:00,18.8,-2.0,29.92,NW,310,0.0,0.0,39,0.00,,---,0.00,VWS V14.01,2013-02-03 13:12:00,
2013-02-03 08:17:00,18.9,-2.0,29.91,NW,311,0.0,0.0,39,0.00,,---,0.00,VWS V14.01,2013-02-03 13:17:00,
2013-02-03 08:22:00,19.1,-1.8,29.91,NW,311,0.0,0.0,39,0.00,,---,0.00,VWS V14.01,2013-02-03 13:22:00,
2013-02-03 08:27:00,19.4,-1.5,29.91,NW,311,0.0,0.0,39,0.00,,---,0.00,VWS V14.01,2013-02-03 13:27:00,
2013-02-03 08:30:00,18.6,-2.2,29.92,NW,310,0.0,0.0,39,0.00,,---,0.00,VWS V14.01,2013-02-03 13:30:00,
2013-02-03 08:32:00,19.9,-1.0,29.90,NW,310,0.0,2.0,39,0.00,,---,0.00,VWS V14.01,2013-02-03 13:32:00,
2013-02-03 08:37:00,20.2,-0.8,29.90,NW,311,0.0,2.0,39,0.00,,---,0.00,VWS V14.01,2013-02-03 13:37:00,
2013-02-03 08:42:00,20.6,-0.4,29.90,NW,311,0.0,3.0,39,0.00,,---,0.00,VWS V14.01,2013-02-03 13:42:00,
2013-02-03 08:47:00,21.1,0.0,29.90,NW,311,0.0,3.0,39,0.00,,---,0.00,VWS V14.01,2013-02-03 13:47:00,
2013-02-03 08:52:00,21.6,0.5,29.90,NW,311,1.0,3.0,39,0.00,,---,0.00,VWS V14.01,2013-02-03 13:52:00,
2013-02-03 08:57:00,22.1,0.9,29.90,NW,311,0.0,3.0,39,0.00,,---,0.00,VWS V14.01,2013-02-03 13:57:00,
2013-02-03 09:00:00,18.6,-2.2,29.92,NW,311,0.0,1.0,39,0.00,,---,0.00,VWS V14.01,2013-02-03 14:00:00,
2013-02-03 09:02:00,22.4,1.2,29.90,NW,311,1.0,1.0,39,0.00,,---,0.00,VWS V14.01,2013-02-03 14:02:00,
2013-02-03 09:07:00,22.7,1.5,29.90,NW,311,0.0,3.0,39,0.00,,---,0.00,VWS V14.01,2013-02-03 14:07:00,
2013-02-03 09:12:00,23.2,1.9,29.90,North,358,1.0,3.0,39,0.00,,---,0.00,VWS V14.01,2013-02-03 14:12:00,
2013-02-03 09:17:00,23.3,2.0,29.89,NE,44,1.0,4.0,39,0.00,,---,0.00,VWS V14.01,2013-02-03 14:17:00,
2013-02-03 09:22:00,23.6,1.7,29.89,NE,46,3.0,4.0,38,0.00,,---,0.00,VWS V14.01,2013-02-03 14:22:00,
2013-02-03 09:27:00,23.6,1.7,29.89,NE,55,3.0,6.0,38,0.00,,---,0.00,VWS V14.01,2013-02-03 14:27:00,
2013-02-03 09:30:00,19.7,-1.2,29.90,NW,311,0.0,2.0,39,0.00,,---,0.00,VWS V14.01,2013-02-03 14:30:00,
2013-02-03 09:32:00,23.6,1.7,29.88,East,84,7.0,9.0,38,0.00,,---,0.00,VWS V14.01,2013-02-03 14:32:00,
2013-02-03 09:37:00,23.6,1.7,29.88,NE,38,6.0,9.0,38,0.00,,---,0.00,VWS V14.01,2013-02-03 14:37:00,
2013-02-03 09:42:00,23.8,1.9,29.88,ENE,63,5.0,10.0,38,0.00,,---,0.00,VWS V14.01,2013-02-03 14:42:00,
2013-02-03 09:47:00,24.1,2.2,29.88,NNE,16,4.0,10.0,38,0.00,,---,0.00,VWS V14.01,2013-02-03 14:47:00,
2013-02-03 09:52:00,24.2,1.7,29.88,NE,46,1.0,10.0,37,0.00,,---,0.00,VWS V14.01,2013-02-03 14:52:00,
2013-02-03 09:57:00,24.4,1.9,29.88,NE,49,4.0,10.0,37,0.00,,---,0.00,VWS V14.01,2013-02-03 14:57:00,
2013-02-03 10:00:00,22.2,1.0,29.90,NW,311,0.0,3.0,39,0.00,,---,0.00,VWS V14.01,2013-02-03 15:00:00,
2013-02-03 10:02:00,24.5,2.0,29.87,East,91,5.0,5.0,37,0.00,,---,0.00,VWS V14.01,2013-02-03 15:02:00,
2013-02-03 10:07:00,24.7,2.2,29.87,NE,53,1.0,7.0,37,0.00,,---,0.00,VWS V14.01,2013-02-03 15:07:00,
2013-02-03 10:12:00,24.8,2.2,29.87,NNE,31,3.0,7.0,37,0.00,,---,0.00,VWS V14.01,2013-02-03 15:12:00,
2013-02-03 10:17:00,25.0,2.4,29.86,NE,39,2.0,7.0,37,0.00,,---,0.00,VWS V14.01,2013-02-03 15:17:00,
2013-02-03 10:22:00,25.1,2.5,29.86,ESE,104,5.0,7.0,37,0.00,,---,0.00,VWS V14.01,2013-02-03 15:22:00,
2013-02-03 10:27:00,25.4,2.8,29.86,NE,43,3.0,7.0,37,0.00,,---,0.00,VWS V14.01,2013-02-03 15:27:00,
2013-02-03 10:30:00,23.6,1.7,29.88,NE,56,5.0,8.0,38,0.00,,---,0.00,VWS V14.01,2013-02-03 15:30:00,
2013-02-03 10:32:00,25.6,3.0,29.86,ENE,64,5.0,5.0,37,0.00,,---,0.00,VWS V14.01,2013-02-03 15:32:00,
2013-02-03 10:37:00,25.7,3.0,29.86,ENE,72,1.0,5.0,37,0.00,,---,0.00,VWS V14.01,2013-02-03 15:37:00,
2013-02-03 10:42:00,26.4,3.7,29.86,ENE,72,0.0,5.0,37,0.00,,---,0.00,VWS V14.01,2013-02-03 15:42:00,
2013-02-03 10:47:00,26.6,3.8,29.85,NE,52,2.0,6.0,37,0.00,,---,0.00,VWS V14.01,2013-02-03 15:47:00,
2013-02-03 10:52:00,26.9,4.1,29.85,NE,53,4.0,6.0,37,0.00,,---,0.00,VWS V14.01,2013-02-03 15:52:00,
2013-02-03 10:57:00,26.7,3.9,29.85,NE,34,1.0,6.0,37,0.00,,---,0.00,VWS V14.01,2013-02-03 15:57:00,
2013-02-03 11:00:00,24.4,1.9,29.87,ENE,77,4.0,10.0,37,0.00,,---,0.00,VWS V14.01,2013-02-03 16:00:00,
2013-02-03 11:02:00,27.2,4.4,29.84,NNE,26,3.0,5.0,37,0.00,,---,0.00,VWS V14.01,2013-02-03 16:02:00,
2013-02-03 11:07:00,27.2,4.4,29.84,North,0,3.0,6.0,37,0.00,,---,0.00,VWS V14.01,2013-02-03 16:07:00,
2013-02-03 11:12:00,27.5,4.7,29.84,NNE,21,3.0,6.0,37,0.00,,---,0.00,VWS V14.01,2013-02-03 16:12:00,
2013-02-03 11:17:00,27.5,4.1,29.82,NE,53,3.0,6.0,36,0.00,,---,0.00,VWS V14.01,2013-02-03 16:17:00,
2013-02-03 11:22:00,27.9,4.4,29.82,NNW,329,2.0,6.0,36,0.00,,---,0.00,VWS V14.01,2013-02-03 16:22:00,
2013-02-03 11:27:00,28.2,4.7,29.82,NW,326,5.0,6.0,36,0.00,,---,0.00,VWS V14.01,2013-02-03 16:27:00,
2013-02-03 11:30:00,25.4,2.8,29.86,NE,55,4.0,7.0,37,0.00,,---,0.00,VWS V14.01,2013-02-03 16:30:00,
2013-02-03 11:32:00,28.4,4.9,29.82,NW,325,4.0,4.0,36,0.00,,---,0.00,VWS V14.01,2013-02-03 16:32:00,
2013-02-03 11:37:00,28.2,4.7,29.82,NNW,337,2.0,8.0,36,0.00,,---,0.00,VWS V14.01,2013-02-03 16:37:00,
2013-02-03 11:42:00,28.2,4.7,29.82,NNW,338,0.0,8.0,36,0.00,,---,0.00,VWS V14.01,2013-02-03 16:42:00,
2013-02-03 11:47:00,28.4,4.9,29.80,NNW,341,2.0,8.0,36,0.00,,---,0.00,VWS V14.01,2013-02-03 16:47:00,
2013-02-03 11:52:00,28.5,5.0,29.80,NNW,333,2.0,8.0,36,0.00,,---,0.00,VWS V14.01,2013-02-03 16:52:00,
2013-02-03 11:57:00,28.5,5.0,29.80,NNW,333,1.0,8.0,36,0.00,,---,0.00,VWS V14.01,2013-02-03 16:57:00,
2013-02-03 12:00:00,26.9,4.1,29.84,NNE,24,1.0,6.0,37,0.00,,---,0.00,VWS V14.01,2013-02-03 17:00:00,
2013-02-03 12:02:00,29.1,5.5,29.79,NNW,338,0.0,3.0,36,0.00,,---,0.00,VWS V14.01,2013-02-03 17:02:00,
2013-02-03 12:07:00,29.0,5.4,29.79,NNE,15,1.0,6.0,36,0.00,,---,0.00,VWS V14.01,2013-02-03 17:07:00,
2013-02-03 12:12:00,29.0,5.4,29.79,NNW,335,1.0,6.0,36,0.00,,---,0.00,VWS V14.01,2013-02-03 17:12:00,
2013-02-03 12:17:00,29.1,5.5,29.78,North,350,3.0,6.0,36,0.00,,---,0.00,VWS V14.01,2013-02-03 17:17:00,
2013-02-03 12:22:00,29.3,5.7,29.78,North,5,4.0,6.0,36,0.00,,---,0.00,VWS V14.01,2013-02-03 17:22:00,
2013-02-03 12:27:00,29.4,5.8,29.78,North,0,1.0,6.0,36,0.00,,---,0.00,VWS V14.01,2013-02-03 17:27:00,
2013-02-03 12:30:00,28.4,4.9,29.82,NW,325,1.0,6.0,36,0.00,,---,0.00,VWS V14.01,2013-02-03 17:30:00,
2013-02-03 12:32:00,29.5,5.8,29.77,North,351,4.0,5.0,36,0.00,,---,0.00,VWS V14.01,2013-02-03 17:32:00,
2013-02-03 12:37:00,29.5,5.8,29.77,North,358,1.0,5.0,36,0.00,,---,0.00,VWS V14.01,2013-02-03 17:37:00,
2013-02-03 12:42:00,30.1,6.4,29.77,NW,319,0.0,5.0,36,0.00,,---,0.00,VWS V14.01,2013-02-03 17:42:00,
2013-02-03 12:47:00,29.8,6.1,29.76,NNW,348,2.0,8.0,36,0.00,,---,0.00,VWS V14.01,2013-02-03 17:47:00,
2013-02-03 12:52:00,29.8,6.1,29.76,North,349,4.0,8.0,36,0.00,,---,0.00,VWS V14.01,2013-02-03 17:52:00,
2013-02-03 12:57:00,30.0,6.3,29.76,North,354,4.0,8.0,36,0.00,,---,0.00,VWS V14.01,2013-02-03 17:57:00,
2013-02-03 13:00:00,29.0,5.4,29.79,NNW,338,3.0,8.0,36,0.00,,---,0.00,VWS V14.01,2013-02-03 18:00:00,
2013-02-03 13:02:00,30.1,6.4,29.76,NW,321,2.0,5.0,36,0.00,,---,0.00,VWS V14.01,2013-02-03 18:02:00,
2013-02-03 13:07:00,30.3,6.6,29.76,NNW,329,3.0,9.0,36,0.00,,---,0.00,VWS V14.01,2013-02-03 18:07:00,
2013-02-03 13:12:00,30.0,6.3,29.76,NNE,18,3.0,9.0,36,0.00,,---,0.00,VWS V14.01,2013-02-03 18:12:00,
2013-02-03 13:17:00,30.1,6.4,29.75,NE,34,0.0,9.0,36,0.00,,---,0.00,VWS V14.01,2013-02-03 18:17:00,
2013-02-03 13:22:00,30.4,6.0,29.75,North,0,5.0,9.0,35,0.00,,---,0.00,VWS V14.01,2013-02-03 18:22:00,
2013-02-03 13:27:00,30.3,5.9,29.75,North,357,1.0,9.0,35,0.00,,---,0.00,VWS V14.01,2013-02-03 18:27:00,
2013-02-03 13:30:00,29.5,5.8,29.77,North,359,4.0,6.0,36,0.00,,---,0.00,VWS V14.01,2013-02-03 18:30:00,
2013-02-03 13:32:00,30.1,5.8,29.74,North,352,4.0,5.0,35,0.00,,---,0.00,VWS V14.01,2013-02-03 18:32:00,
2013-02-03 13:37:00,30.3,5.9,29.74,NNW,344,1.0,6.0,35,0.00,,---,0.00,VWS V14.01,2013-02-03 18:37:00,
2013-02-03 13:42:00,30.7,6.3,29.74,North,0,4.0,6.0,35,0.00,,---,0.00,VWS V14.01,2013-02-03 18:42:00,
2013-02-03 13:47:00,30.6,6.2,29.73,NNE,20,1.0,6.0,35,0.00,,---,0.00,VWS V14.01,2013-02-03 18:47:00,
2013-02-03 13:52:00,30.7,6.3,29.73,North,2,2.0,6.0,35,0.00,,---,0.00,VWS V14.01,2013-02-03 18:52:00,
2013-02-03 13:57:00,30.9,6.5,29.73,NNW,336,3.0,6.0,35,0.00,,---,0.00,VWS V14.01,2013-02-03 18:57:00,
2013-02-03 14:00:00,30.1,6.4,29.76,NNW,339,1.0,8.0,36,0.00,,---,0.00,VWS V14.01,2013-02-03 19:00:00,
2013-02-03 14:02:00,30.9,6.5,29.73,WNW,293,0.0,4.0,35,0.00,,---,0.00,VWS V14.01,2013-02-03 19:02:00,
2013-02-03 14:07:00,31.2,6.8,29.73,NNW,340,3.0,6.0,35,0.00,,---,0.00,VWS V14.01,2013-02-03 19:07:00,
2013-02-03 14:12:00,31.3,6.8,29.73,NW,318,3.0,6.0,35,0.00,,---,0.00,VWS V14.01,2013-02-03 19:12:00,
2013-02-03 14:17:00,31.5,7.0,29.72,NW,318,2.0,6.0,35,0.00,,---,0.00,VWS V14.01,2013-02-03 19:17:00,
2013-02-03 14:22:00,31.5,7.0,29.72,NNW,329,3.0,6.0,35,0.00,,---,0.00,VWS V14.01,2013-02-03 19:22:00,
2013-02-03 14:27:00,31.3,6.8,29.72,NNE,14,5.0,6.0,35,0.00,,---,0.00,VWS V14.01,2013-02-03 19:27:00,
2013-02-03 14:30:00,30.1,5.8,29.74,North,358,0.0,9.0,35,0.00,,---,0.00,VWS V14.01,2013-02-03 19:30:00,
2013-02-03 14:32:00,31.2,6.8,29.72,North,11,2.0,2.0,35,0.00,,---,0.00,VWS V14.01,2013-02-03 19:32:00,
2013-02-03 14:37:00,31.0,6.6,29.72,NE,35,2.0,5.0,35,0.00,,---,0.00,VWS V14.01,2013-02-03 19:37:00,
2013-02-03 14:42:00,31.3,6.8,29.72,NNE,15,6.0,6.0,35,0.00,,---,0.00,VWS V14.01,2013-02-03 19:42:00,
2013-02-03 14:47:00,31.5,7.0,29.72,NNE,23,2.0,7.0,35,0.00,,---,0.00,VWS V14.01,2013-02-03 19:47:00,
2013-02-03 14:52:00,31.8,7.3,29.72,NNE,23,1.0,7.0,35,0.00,,---,0.00,VWS V14.01,2013-02-03 19:52:00,
2013-02-03 14:57:00,32.1,7.6,29.72,NNW,342,2.0,7.0,35,0.00,,---,0.00,VWS V14.01,2013-02-03 19:57:00,
2013-02-03 15:00:00,30.9,6.5,29.73,WNW,292,4.0,6.0,35,0.00,,---,0.00,VWS V14.01,2013-02-03 20:00:00,
2013-02-03 15:02:00,32.1,7.6,29.72,NNW,340,2.0,5.0,35,0.00,,---,0.00,VWS V14.01,2013-02-03 20:02:00,
2013-02-03 15:07:00,31.8,7.3,29.72,NW,307,3.0,7.0,35,0.00,,---,0.00,VWS V14.01,2013-02-03 20:07:00,
2013-02-03 15:12:00,31.6,7.1,29.72,North,1,3.0,7.0,35,0.00,,---,0.00,VWS V14.01,2013-02-03 20:12:00,
2013-02-03 15:17:00,31.6,7.1,29.71,North,0,2.0,7.0,35,0.00,,---,0.00,VWS V14.01,2013-02-03 20:17:00,
2013-02-03 15:22:00,31.9,7.4,29.71,NNW,330,4.0,10.0,35,0.00,,---,0.00,VWS V14.01,2013-02-03 20:22:00,
2013-02-03 15:27:00,31.8,7.3,29.71,NW,312,1.0,10.0,35,0.00,,---,0.00,VWS V14.01,2013-02-03 20:27:00,
2013-02-03 15:30:00,31.2,6.8,29.72,North,11,0.0,7.0,35,0.00,,---,0.00,VWS V14.01,2013-02-03 20:30:00,
2013-02-03 15:32:00,31.6,7.1,29.71,NNW,330,3.0,6.0,35,0.00,,---,0.00,VWS V14.01,2013-02-03 20:32:00,
2013-02-03 15:37:00,31.3,6.8,29.71,North,0,0.0,6.0,35,0.00,,---,0.00,VWS V14.01,2013-02-03 20:37:00,
2013-02-03 15:42:00,31.5,7.0,29.71,North,0,0.0,6.0,35,0.00,,---,0.00,VWS V14.01,2013-02-03 20:42:00,
2013-02-03 15:47:00,31.6,7.1,29.70,NW,315,3.0,7.0,35,0.00,,---,0.00,VWS V14.01,2013-02-03 20:47:00,
2013-02-03 15:52:00,31.3,6.8,29.70,NW,318,5.0,10.0,35,0.00,,---,0.00,VWS V14.01,2013-02-03 20:52:00,
2013-02-03 15:57:00,31.0,6.6,29.70,NNW,335,6.0,10.0,35,0.00,,---,0.00,VWS V14.01,2013-02-03 20:57:00,
2013-02-03 16:00:00,32.1,7.6,29.72,NNW,340,2.0,7.0,35,0.00,,---,0.00,VWS V14.01,2013-02-03 21:00:00,
2013-02-03 16:02:00,30.7,6.3,29.70,NNW,335,3.0,5.0,35,0.00,,---,0.00,VWS V14.01,2013-02-03 21:02:00,
2013-02-03 16:07:00,30.6,6.2,29.70,NNW,340,7.0,9.0,35,0.00,,---,0.00,VWS V14.01,2013-02-03 21:07:00,
2013-02-03 16:12:00,30.4,6.0,29.70,NNW,338,3.0,9.0,35,0.00,,---,0.00,VWS V14.01,2013-02-03 21:12:00,
2013-02-03 16:17:00,30.3,5.9,29.70,NNW,341,4.0,9.0,35,0.00,,---,0.00,VWS V14.01,2013-02-03 21:17:00,
2013-02-03 16:22:00,30.1,5.8,29.70,NNW,338,1.0,10.0,35,0.00,,---,0.00,VWS V14.01,2013-02-03 21:22:00,
2013-02-03 16:27:00,30.0,5.7,29.70,NNW,328,4.0,10.0,35,0.00,,---,0.00,VWS V14.01,2013-02-03 21:27:00,
2013-02-03 16:30:00,31.6,7.1,29.71,NNW,330,4.0,10.0,35,0.00,,---,0.00,VWS V14.01,2013-02-03 21:30:00,
2013-02-03 16:32:00,29.7,5.4,29.69,NNW,333,5.0,5.0,35,0.00,,---,0.00,VWS V14.01,2013-02-03 21:32:00,
2013-02-03 16:37:00,29.5,5.2,29.69,NNW,337,3.0,7.0,35,0.00,,---,0.00,VWS V14.01,2013-02-03 21:37:00,
2013-02-03 16:42:00,29.4,5.1,29.69,NNW,328,5.0,8.0,35,0.00,,---,0.00,VWS V14.01,2013-02-03 21:42:00,
2013-02-03 16:47:00,29.3,5.1,29.69,NNW,340,7.0,10.0,35,0.00,,---,0.00,VWS V14.01,2013-02-03 21:47:00,
2013-02-03 16:52:00,29.1,4.9,29.69,NNW,339,2.0,11.0,35,0.00,,---,0.00,VWS V14.01,2013-02-03 21:52:00,
2013-02-03 16:57:00,29.0,4.8,29.69,NNW,344,2.0,11.0,35,0.00,,---,0.00,VWS V14.01,2013-02-03 21:57:00,
2013-02-03 17:00:00,30.7,6.3,29.70,NNW,335,2.0,10.0,35,0.00,,---,0.00,VWS V14.01,2013-02-03 22:00:00,
2013-02-03 17:02:00,28.8,4.6,29.70,NNW,333,4.0,4.0,35,0.00,,---,0.00,VWS V14.01,2013-02-03 22:02:00,
2013-02-03 17:07:00,28.8,4.6,29.70,NW,318,3.0,9.0,35,0.00,,---,0.00,VWS V14.01,2013-02-03 22:07:00,
2013-02-03 17:12:00,28.7,4.5,29.70,WNW,295,3.0,9.0,35,0.00,,---,0.00,VWS V14.01,2013-02-03 22:12:00,
2013-02-03 17:17:00,28.7,5.1,29.70,WNW,303,2.0,9.0,36,0.00,,---,0.00,VWS V14.01,2013-02-03 22:17:00,
2013-02-03 17:22:00,28.5,5.0,29.70,NW,305,3.0,9.0,36,0.00,,---,0.00,VWS V14.01,2013-02-03 22:22:00,
2013-02-03 17:27:00,28.4,4.9,29.70,NW,311,3.0,9.0,36,0.00,,---,0.00,VWS V14.01,2013-02-03 22:27:00,
2013-02-03 17:30:00,29.8,5.5,29.69,NNW,338,4.0,12.0,35,0.00,,---,0.00,VWS V14.01,2013-02-03 22:30:00,
2013-02-03 17:32:00,28.4,4.9,29.70,NW,311,3.0,5.0,36,0.00,,---,0.00,VWS V14.01,2013-02-03 22:32:00,
2013-02-03 17:37:00,28.2,4.7,29.70,NW,311,3.0,5.0,36,0.00,,---,0.00,VWS V14.01,2013-02-03 22:37:00,
2013-02-03 17:42:00,28.2,4.7,29.70,NW,311,0.0,5.0,36,0.00,,---,0.00,VWS V14.01,2013-02-03 22:42:00,
2013-02-03 17:47:00,28.1,4.6,29.70,NW,311,1.0,5.0,36,0.00,,---,0.00,VWS V14.01,2013-02-03 22:47:00,
2013-02-03 17:52:00,28.1,4.6,29.70,NW,311,0.0,5.0,36,0.00,,---,0.00,VWS V14.01,2013-02-03 22:52:00,
2013-02-03 17:57:00,27.9,4.4,29.70,NW,311,2.0,5.0,36,0.00,,---,0.00,VWS V14.01,2013-02-03 22:57:00,
2013-02-03 18:00:00,29.0,4.8,29.70,NNW,333,4.0,11.0,35,0.00,,---,0.00,VWS V14.01,2013-02-03 23:00:00,
2013-02-03 18:02:00,27.8,4.3,29.71,NW,311,0.0,1.0,36,0.00,,---,0.00,VWS V14.01,2013-02-03 23:02:00,
2013-02-03 18:07:00,27.8,4.3,29.71,NW,311,0.0,1.0,36,0.00,,---,0.00,VWS V14.01,2013-02-03 23:07:00,
2013-02-03 18:12:00,27.6,4.2,29.71,NW,311,0.0,1.0,36,0.00,,---,0.00,VWS V14.01,2013-02-03 23:12:00,
2013-02-03 18:17:00,27.5,4.1,29.71,NW,311,0.0,1.0,36,0.00,,---,0.00,VWS V14.01,2013-02-03 23:17:00,
2013-02-03 18:22:00,27.3,3.9,29.71,NW,311,0.0,1.0,36,0.00,,---,0.00,VWS V14.01,2013-02-03 23:22:00,
2013-02-03 18:27:00,27.0,3.6,29.71,NW,311,0.0,1.0,36,0.00,,---,0.00,VWS V14.01,2013-02-03 23:27:00,
2013-02-03 18:30:00,28.4,4.9,29.70,NW,311,1.0,9.0,36,0.00,,---,0.00,VWS V14.01,2013-02-03 23:30:00,
2013-02-03 18:32:00,26.9,3.5,29.72,NW,311,0.0,0.0,36,0.00,,---,0.00,VWS V14.01,2013-02-03 23:32:00,
2013-02-03 18:37:00,26.6,3.3,29.72,NW,311,0.0,0.0,36,0.00,,---,0.00,VWS V14.01,2013-02-03 23:37:00,
2013-02-03 18:42:00,26.4,3.1,29.72,NW,311,0.0,0.0,36,0.00,,---,0.00,VWS V14.01,2013-02-03 23:42:00,
2013-02-03 18:47:00,26.3,3.6,29.72,NW,311,0.0,0.0,37,0.00,,---,0.00,VWS V14.01,2013-02-03 23:47:00,
2013-02-03 18:52:00,26.0,3.3,29.72,NW,311,0.0,0.0,37,0.00,,---,0.00,VWS V14.01,2013-02-03 23:52:00,
2013-02-03 18:57:00,25.7,3.0,29.72,NW,311,0.0,0.0,37,0.00,,---,0.00,VWS V14.01,2013-02-03 23:57:00,
2013-02-03 19:00:00,27.9,4.4,29.71,NW,311,0.0,5.0,36,0.00,,---,0.00,VWS V14.01,2013-02-04 00:00:00,
2013-02-03 19:02:00,25.4,2.8,29.72,NW,311,0.0,0.0,37,0.00,,---,0.00,VWS V14.01,2013-02-04 00:02:00,
2013-02-03 19:07:00,25.3,2.7,29.72,NW,311,0.0,0.0,37,0.00,,---,0.00,VWS V14.01,2013-02-04 00:07:00,
2013-02-03 19:12:00,25.1,2.5,29.72,NW,311,0.0,0.0,37,0.00,,---,0.00,VWS V14.01,2013-02-04 00:12:00,
2013-02-03 19:17:00,25.1,2.5,29.72,NW,311,0.0,0.0,37,0.00,,---,0.00,VWS V14.01,2013-02-04 00:17:00,
2013-02-03 19:22:00,25.1,2.5,29.72,NW,311,0.0,0.0,37,0.00,,---,0.00,VWS V14.01,2013-02-04 00:22:00,
2013-02-03 19:27:00,25.0,2.4,29.72,NW,311,0.0,1.0,37,0.00,,---,0.00,VWS V14.01,2013-02-04 00:27:00,
2013-02-03 19:30:00,27.0,3.6,29.72,NW,311,0.0,1.0,36,0.00,,---,0.00,VWS V14.01,2013-02-04 00:30:00,
2013-02-03 19:32:00,24.8,2.2,29.72,NW,311,0.0,0.0,37,0.00,,---,0.00,VWS V14.01,2013-02-04 00:32:00,
2013-02-03 19:37:00,24.7,2.2,29.72,NW,311,0.0,0.0,37,0.00,,---,0.00,VWS V14.01,2013-02-04 00:37:00,
2013-02-03 19:42:00,24.5,2.0,29.72,NW,311,0.0,0.0,37,0.00,,---,0.00,VWS V14.01,2013-02-04 00:42:00,
2013-02-03 19:47:00,24.5,2.0,29.71,NW,311,0.0,0.0,37,0.00,,---,0.00,VWS V14.01,2013-02-04 00:47:00,
2013-02-03 19:52:00,24.4,1.9,29.71,NW,311,1.0,2.0,37,0.00,,---,0.00,VWS V14.01,2013-02-04 00:52:00,
2013-02-03 19:57:00,24.2,1.7,29.71,NW,311,0.0,2.0,37,0.00,,---,0.00,VWS V14.01,2013-02-04 00:57:00,
2013-02-03 20:00:00,25.6,3.0,29.72,NW,311,0.0,0.0,37,0.00,,---,0.00,VWS V14.01,2013-02-04 01:00:00,
2013-02-03 20:02:00,24.1,1.6,29.71,NW,311,0.0,0.0,37,0.00,,---,0.00,VWS V14.01,2013-02-04 01:02:00,
2013-02-03 20:07:00,24.1,1.6,29.71,NW,311,0.0,0.0,37,0.00,,---,0.00,VWS V14.01,2013-02-04 01:07:00,
2013-02-03 20:12:00,23.9,1.4,29.71,NW,311,0.0,1.0,37,0.00,,---,0.00,VWS V14.01,2013-02-04 01:12:00,
2013-02-03 20:17:00,23.9,1.4,29.72,NW,311,0.0,1.0,37,0.00,,---,0.00,VWS V14.01,2013-02-04 01:17:00,
2013-02-03 20:22:00,23.8,1.3,29.72,NW,311,0.0,1.0,37,0.00,,---,0.00,VWS V14.01,2013-02-04 01:22:00,
2013-02-03 20:27:00,23.8,1.3,29.72,NW,311,0.0,1.0,37,0.00,,---,0.00,VWS V14.01,2013-02-04 01:27:00,
2013-02-03 20:30:00,24.8,2.2,29.72,NW,311,0.0,1.0,37,0.00,,---,0.00,VWS V14.01,2013-02-04 01:30:00,
2013-02-03 20:32:00,23.6,1.2,29.72,NW,311,0.0,0.0,37,0.00,,---,0.00,VWS V14.01,2013-02-04 01:32:00,
2013-02-03 20:37:00,23.6,1.2,29.72,NW,311,0.0,0.0,37,0.00,,---,0.00,VWS V14.01,2013-02-04 01:37:00,
2013-02-03 20:42:00,23.5,1.1,29.72,NW,311,0.0,1.0,37,0.00,,---,0.00,VWS V14.01,2013-02-04 01:42:00,
2013-02-03 20:47:00,23.3,1.5,29.72,NW,311,0.0,1.0,38,0.00,,---,0.00,VWS V14.01,2013-02-04 01:47:00,
2013-02-03 20:52:00,23.0,1.2,29.72,NW,311,0.0,1.0,38,0.00,,---,0.00,VWS V14.01,2013-02-04 01:52:00,
2013-02-03 20:57:00,22.9,1.1,29.72,NW,311,0.0,1.0,38,0.00,,---,0.00,VWS V14.01,2013-02-04 01:57:00,
2013-02-03 21:00:00,24.2,1.7,29.71,NW,311,0.0,2.0,37,0.00,,---,0.00,VWS V14.01,2013-02-04 02:00:00,
2013-02-03 21:02:00,22.9,1.1,29.72,NW,311,0.0,0.0,38,0.00,,---,0.00,VWS V14.01,2013-02-04 02:02:00,
2013-02-03 21:07:00,22.7,0.9,29.72,NW,311,0.0,0.0,38,0.00,,---,0.00,VWS V14.01,2013-02-04 02:07:00,
2013-02-03 21:12:00,22.7,0.9,29.72,NW,311,0.0,0.0,38,0.00,,---,0.00,VWS V14.01,2013-02-04 02:12:00,
2013-02-03 21:17:00,22.4,0.6,29.72,NW,311,0.0,0.0,38,0.00,,---,0.00,VWS V14.01,2013-02-04 02:17:00,
2013-02-03 21:22:00,22.4,0.6,29.72,NW,311,0.0,0.0,38,0.00,,---,0.00,VWS V14.01,2013-02-04 02:22:00,
2013-02-03 21:27:00,22.2,0.5,29.72,NW,311,0.0,0.0,38,0.00,,---,0.00,VWS V14.01,2013-02-04 02:27:00,
2013-02-03 21:30:00,23.6,1.2,29.72,NW,311,0.0,1.0,37,0.00,,---,0.00,VWS V14.01,2013-02-04 02:30:00,
2013-02-03 21:32:00,22.1,0.4,29.72,NW,311,0.0,0.0,38,0.00,,---,0.00,VWS V14.01,2013-02-04 02:32:00,
2013-02-03 21:37:00,21.9,0.2,29.72,NW,311,0.0,0.0,38,0.00,,---,0.00,VWS V14.01,2013-02-04 02:37:00,
2013-02-03 21:42:00,21.8,0.1,29.72,NW,311,0.0,0.0,38,0.00,,---,0.00,VWS V14.01,2013-02-04 02:42:00,
2013-02-03 21:47:00,21.8,0.1,29.72,NW,311,0.0,0.0,38,0.00,,---,0.00,VWS V14.01,2013-02-04 02:47:00,
2013-02-03 21:52:00,21.6,-0.1,29.72,NW,311,0.0,0.0,38,0.00,,---,0.00,VWS V14.01,2013-02-04 02:52:00,
2013-02-03 21:57:00,21.4,-0.2,29.72,NW,311,0.0,0.0,38,0.00,,---,0.00,VWS V14.01,2013-02-04 02:57:00,
2013-02-03 22:00:00,22.9,1.1,29.72,NW,311,0.0,1.0,38,0.00,,---,0.00,VWS V14.01,2013-02-04 03:00:00,
2013-02-03 22:02:00,21.3,-0.3,29.72,NW,311,0.0,0.0,38,0.00,,---,0.00,VWS V14.01,2013-02-04 03:02:00,
2013-02-03 22:07:00,21.1,-0.5,29.72,NW,311,1.0,2.0,38,0.00,,---,0.00,VWS V14.01,2013-02-04 03:07:00,
2013-02-03 22:12:00,21.0,-0.6,29.72,NW,311,0.0,2.0,38,0.00,,---,0.00,VWS V14.01,2013-02-04 03:12:00,
2013-02-03 22:18:00,21.0,-0.6,29.72,NW,311,1.0,2.0,38,0.00,,---,0.00,VWS V14.01,2013-02-04 03:18:00,
2013-02-03 22:23:00,20.8,-0.8,29.72,NW,311,0.0,2.0,38,0.00,,---,0.00,VWS V14.01,2013-02-04 03:23:00,
2013-02-03 22:28:00,20.6,-1.0,29.72,NW,311,0.0,2.0,38,0.00,,---,0.00,VWS V14.01,2013-02-04 03:28:00,
2013-02-03 22:30:00,22.1,0.4,29.72,NW,311,0.0,0.0,38,0.00,,---,0.00,VWS V14.01,2013-02-04 03:30:00,
2013-02-03 22:33:00,20.6,-1.0,29.72,NW,311,2.0,3.0,38,0.00,,---,0.00,VWS V14.01,2013-02-04 03:33:00,
2013-02-03 22:38:00,20.8,-0.8,29.72,NW,311,0.0,3.0,38,0.00,,---,0.00,VWS V14.01,2013-02-04 03:38:00,
2013-02-03 22:43:00,21.0,-0.6,29.72,NW,311,1.0,3.0,38,0.00,,---,0.00,VWS V14.01,2013-02-04 03:43:00,
2013-02-03 22:48:00,21.1,-0.5,29.72,NW,311,1.0,5.0,38,0.00,,---,0.00,VWS V14.01,2013-02-04 03:48:00,
2013-02-03 22:53:00,21.4,-0.2,29.72,WNW,300,2.0,6.0,38,0.00,,---,0.00,VWS V14.01,2013-02-04 03:53:00,
2013-02-03 22:58:00,21.6,-0.1,29.72,WNW,300,2.0,6.0,38,0.00,,---,0.00,VWS V14.01,2013-02-04 03:58:00,
2013-02-03 23:00:00,21.3,-0.3,29.72,NW,311,0.0,0.0,38,0.00,,---,0.00,VWS V14.01,2013-02-04 04:00:00,
2013-02-03 23:03:00,21.8,0.1,29.71,WNW,301,2.0,3.0,38,0.00,,---,0.00,VWS V14.01,2013-02-04 04:03:00,
2013-02-03 23:08:00,22.1,-0.2,29.71,WNW,301,2.0,5.0,37,0.00,,---,0.00,VWS V14.01,2013-02-04 04:08:00,
2013-02-03 23:13:00,22.5,0.2,29.71,NW,304,4.0,5.0,37,0.00,,---,0.00,VWS V14.01,2013-02-04 04:13:00,
2013-02-03 23:18:00,22.9,0.5,29.71,NW,306,3.0,5.0,37,0.00,,---,0.00,VWS V14.01,2013-02-04 04:18:00,
2013-02-03 23:23:00,23.2,0.8,29.71,NW,306,3.0,5.0,37,0.00,,---,0.00,VWS V14.01,2013-02-04 04:23:00,
2013-02-03 23:28:00,23.3,0.9,29.71,NW,305,2.0,5.0,37,0.00,,---,0.00,VWS V14.01,2013-02-04 04:28:00,
2013-02-03 23:30:00,20.6,-1.0,29.72,NW,311,1.0,3.0,38,0.00,,---,0.00,VWS V14.01,2013-02-04 04:30:00,
2013-02-03 23:33:00,23.5,1.1,29.72,WNW,300,3.0,5.0,37,0.00,,---,0.00,VWS V14.01,2013-02-04 04:33:00,
2013-02-03 23:38:00,23.6,1.2,29.72,WNW,302,3.0,5.0,37,0.00,,---,0.00,VWS V14.01,2013-02-04 04:38:00,
2013-02-03 23:43:00,23.8,1.3,29.72,WNW,302,2.0,5.0,37,0.00,,---,0.00,VWS V14.01,2013-02-04 04:43:00,
2013-02-03 23:48:00,23.6,1.2,29.72,NW,304,2.0,5.0,37,0.00,,---,0.00,VWS V14.01,2013-02-04 04:48:00,
2013-02-03 23:53:00,23.5,1.1,29.72,NW,304,1.0,5.0,37,0.00,,---,0.00,VWS V14.01,2013-02-04 04:53:00,
2013-02-03 23:58:00,23.3,0.9,29.72,NW,304,1.0,5.0,37,0.00,,---,0.00,VWS V14.01,2013-02-04 04:58:00,